Time;durP1;ratioP1;P1;durP2;ratioP2;P2;SDS_P1;SDS_P2;PMS_P1;PMS_P2;Temp;Humidity;BMP_temperature;BMP_pressure;BME280_temperature;BME280_humidity;BME280_pressure;Samples;Min_cycle;Max_cycle;Signal;HPM_P1;HPM_P2
2021/08/30 00:00:32;;;;;;;8.18;7.38;;;14.50;99.90;;;;;;2081050;28;20034;-71
2021/08/30 00:01:32;;;;;;;9.98;7.82;;;14.50;99.90;;;;;;2080948;28;20477;-72
2021/08/30 00:02:33;;;;;;;9.05;7.82;;;14.50;99.90;;;;;;2072586;28;20042;-70
2021/08/30 00:03:34;;;;;;;8.25;7.45;;;14.40;99.90;;;;;;2080325;28;20448;-70
2021/08/30 00:04:34;;;;;;;8.32;7.43;;;14.50;99.90;;;;;;2080613;28;20104;-71
2021/08/30 00:05:35;;;;;;;8.10;7.30;;;14.50;99.90;;;;;;2080790;28;20026;-71
2021/08/30 00:06:35;;;;;;;8.50;7.57;;;14.50;99.90;;;;;;2089654;28;20361;-70
2021/08/30 00:07:36;;;;;;;8.30;7.45;;;14.50;99.90;;;;;;2089677;28;20779;-70
2021/08/30 00:08:36;;;;;;;8.27;7.47;;;14.50;99.90;;;;;;2089482;28;20033;-70
2021/08/30 00:09:37;;;;;;;9.10;7.82;;;14.50;99.90;;;;;;2080818;28;20037;-71
2021/08/30 00:10:38;;;;;;;9.32;8.30;;;14.50;99.90;;;;;;2080935;28;20389;-70
2021/08/30 00:11:39;;;;;;;9.18;8.23;;;14.50;99.90;;;;;;2080720;28;20046;-72
2021/08/30 00:12:43;;;;;;;8.85;7.95;;;14.50;99.90;;;;;;2080865;28;20037;-71
2021/08/30 00:13:45;;;;;;;8.95;8.05;;;14.40;99.90;;;;;;2089391;28;20521;-72
2021/08/30 00:14:45;;;;;;;9.35;8.43;;;14.40;99.90;;;;;;2080835;28;20037;-70
2021/08/30 00:15:46;;;;;;;9.55;8.30;;;14.40;99.90;;;;;;2080552;28;20120;-70
2021/08/30 00:16:47;;;;;;;9.02;8.13;;;14.40;99.90;;;;;;2081182;28;20064;-70
2021/08/30 00:17:49;;;;;;;9.20;8.13;;;14.40;99.90;;;;;;2090615;28;20025;-71
2021/08/30 00:18:50;;;;;;;9.27;8.30;;;14.40;99.90;;;;;;2090465;28;20066;-71
2021/08/30 00:19:51;;;;;;;10.63;9.10;;;14.40;99.90;;;;;;2090464;28;20024;-71
2021/08/30 00:20:53;;;;;;;9.77;8.77;;;14.40;99.90;;;;;;2090902;28;20021;-70
2021/08/30 00:21:53;;;;;;;10.38;8.68;;;14.40;99.90;;;;;;2090689;28;20040;-72
2021/08/30 00:22:54;;;;;;;10.65;9.07;;;14.40;99.90;;;;;;2091188;28;20108;-71
2021/08/30 00:23:54;;;;;;;10.20;9.20;;;14.40;99.90;;;;;;2090512;28;20166;-71
2021/08/30 00:24:55;;;;;;;11.32;9.38;;;14.40;99.90;;;;;;2080814;28;20492;-71
2021/08/30 00:25:55;;;;;;;11.20;9.25;;;14.40;99.90;;;;;;2080537;28;20017;-70
2021/08/30 00:26:56;;;;;;;10.23;9.23;;;14.30;99.90;;;;;;2089559;28;20592;-71
2021/08/30 00:27:57;;;;;;;10.07;9.02;;;14.30;99.90;;;;;;2080335;28;20060;-70
2021/08/30 00:28:57;;;;;;;10.07;9.07;;;14.30;99.90;;;;;;2080409;28;20037;-73
2021/08/30 00:29:58;;;;;;;9.68;8.77;;;14.30;99.90;;;;;;2080353;28;20025;-71
2021/08/30 00:30:59;;;;;;;9.93;8.93;;;14.30;99.90;;;;;;2080591;28;20037;-70
2021/08/30 00:31:59;;;;;;;10.75;8.63;;;14.30;99.90;;;;;;2089137;28;20092;-72
2021/08/30 00:33:00;;;;;;;9.95;8.95;;;14.30;99.90;;;;;;2080511;28;20037;-71
2021/08/30 00:34:01;;;;;;;9.70;8.70;;;14.30;99.90;;;;;;2080251;28;20060;-71
2021/08/30 00:35:01;;;;;;;9.30;8.40;;;14.30;99.90;;;;;;2080236;28;20033;-70
2021/08/30 00:36:02;;;;;;;9.73;8.73;;;14.30;99.90;;;;;;2080565;28;20119;-71
2021/08/30 00:37:03;;;;;;;10.38;9.27;;;14.30;99.90;;;;;;2089401;28;20043;-70
2021/08/30 00:38:05;;;;;;;9.50;8.52;;;14.30;99.90;;;;;;2089393;28;20036;-69
2021/08/30 00:39:05;;;;;;;9.52;8.63;;;14.30;99.90;;;;;;2079954;28;20026;-70
2021/08/30 00:40:07;;;;;;;9.50;8.52;;;14.30;99.90;;;;;;2080349;28;20604;-71
2021/08/30 00:41:07;;;;;;;9.45;8.52;;;14.30;99.90;;;;;;2089409;28;20434;-70
2021/08/30 00:42:09;;;;;;;9.35;8.45;;;14.30;99.90;;;;;;2089266;28;20040;-70
2021/08/30 00:43:10;;;;;;;9.48;8.52;;;14.30;99.90;;;;;;2089238;28;20484;-70
2021/08/30 00:44:11;;;;;;;9.23;8.32;;;14.30;99.90;;;;;;2088646;28;20021;-70
2021/08/30 00:45:13;;;;;;;9.70;8.73;;;14.20;99.90;;;;;;2089077;28;20546;-70
2021/08/30 00:46:17;;;;;;;9.65;8.70;;;14.30;99.90;;;;;;2089303;28;20396;-70
2021/08/30 00:47:17;;;;;;;11.00;9.30;;;14.30;99.90;;;;;;2089262;28;20075;-70
2021/08/30 00:48:19;;;;;;;9.85;8.85;;;14.20;99.90;;;;;;2089276;28;20476;-71
2021/08/30 00:49:20;;;;;;;9.35;8.45;;;14.20;99.90;;;;;;2088770;28;20091;-71
2021/08/30 00:50:20;;;;;;;10.27;8.65;;;14.20;99.90;;;;;;2089012;28;20033;-71
2021/08/30 00:51:21;;;;;;;9.95;8.93;;;14.20;99.90;;;;;;2088936;28;20098;-72
2021/08/30 00:52:22;;;;;;;9.75;8.75;;;14.20;99.90;;;;;;2089215;28;20794;-72
2021/08/30 00:53:23;;;;;;;10.40;9.30;;;14.20;99.90;;;;;;2088686;28;20029;-72
2021/08/30 00:54:28;;;;;;;9.40;8.50;;;14.20;99.90;;;;;;2080127;28;20026;-72
2021/08/30 00:55:29;;;;;;;10.63;8.73;;;14.20;99.90;;;;;;2081097;28;20026;-72
2021/08/30 00:56:30;;;;;;;10.75;8.70;;;14.10;99.90;;;;;;2088946;28;20064;-72
2021/08/30 00:57:31;;;;;;;10.52;8.75;;;14.10;99.90;;;;;;2089057;28;20477;-72
2021/08/30 00:58:32;;;;;;;9.63;8.63;;;14.10;99.90;;;;;;2080142;28;20120;-72
2021/08/30 00:59:35;;;;;;;9.30;8.30;;;14.10;99.90;;;;;;2079993;28;20532;-72
2021/08/30 01:00:35;;;;;;;9.27;8.38;;;14.10;99.90;;;;;;2088896;28;20025;-72
2021/08/30 01:01:36;;;;;;;9.80;8.77;;;14.10;99.90;;;;;;2080082;28;20585;-72
2021/08/30 01:02:41;;;;;;;9.30;8.40;;;14.10;99.90;;;;;;2080378;28;20155;-72
2021/08/30 01:03:42;;;;;;;9.52;8.52;;;14.10;99.90;;;;;;2088643;28;20043;-72
2021/08/30 01:04:43;;;;;;;9.25;8.35;;;14.10;99.90;;;;;;2089204;28;20508;-73
2021/08/30 01:05:49;;;;;;;9.73;8.73;;;14.10;99.90;;;;;;2089287;28;20031;-73
2021/08/30 01:07:23;;;;;;;9.77;8.77;;;14.10;99.90;;;;;;2089311;28;20436;-72
2021/08/30 01:08:39;;;;;;;10.38;9.27;;;14.10;99.90;;;;;;2063464;28;20050;-72
2021/08/30 01:09:56;;;;;;;9.95;8.57;;;14.10;99.90;;;;;;2059211;28;20146;-72
2021/08/30 01:11:09;;;;;;;10.43;9.23;;;14.10;99.90;;;;;;2082535;28;20033;-72
2021/08/30 01:12:19;;;;;;;10.40;8.77;;;14.10;99.90;;;;;;2088912;28;20066;-72
2021/08/30 01:13:33;;;;;;;9.60;8.70;;;14.10;99.90;;;;;;2089107;28;20028;-72
2021/08/30 01:14:52;;;;;;;9.68;8.65;;;14.10;99.90;;;;;;2089218;28;20036;-72
2021/08/30 01:15:54;;;;;;;9.07;8.13;;;14.10;99.90;;;;;;2089082;28;20651;-72
2021/08/30 01:16:54;;;;;;;10.02;9.02;;;14.10;99.90;;;;;;2088864;28;20025;-72
2021/08/30 01:17:59;;;;;;;10.75;8.93;;;14.10;99.90;;;;;;2088897;28;20492;-71
2021/08/30 01:19:02;;;;;;;9.05;8.25;;;14.10;99.90;;;;;;2088599;28;20055;-72
2021/08/30 01:20:14;;;;;;;9.48;8.57;;;14.10;99.90;;;;;;2088899;28;20032;-72
2021/08/30 01:21:20;;;;;;;9.40;8.40;;;14.10;99.90;;;;;;2080036;28;20025;-72
2021/08/30 01:22:23;;;;;;;9.10;8.20;;;14.20;99.90;;;;;;2080938;28;20022;-72
2021/08/30 01:23:27;;;;;;;9.32;8.32;;;14.20;99.90;;;;;;2088537;28;20361;-72
2021/08/30 01:24:28;;;;;;;9.43;8.52;;;14.10;99.90;;;;;;2088889;28;20086;-71
2021/08/30 01:25:32;;;;;;;9.77;8.77;;;14.20;99.90;;;;;;2089024;28;20040;-72
2021/08/30 01:26:47;;;;;;;9.80;8.80;;;14.20;99.90;;;;;;2088638;28;20036;-72
2021/08/30 01:27:51;;;;;;;9.38;8.38;;;14.10;99.90;;;;;;2088944;28;20037;-72
2021/08/30 01:29:09;;;;;;;9.85;8.85;;;14.10;99.90;;;;;;2088565;28;20106;-72
2021/08/30 01:30:17;;;;;;;10.00;9.00;;;14.10;99.90;;;;;;2080054;28;20481;-71
2021/08/30 01:31:36;;;;;;;9.68;8.73;;;14.10;99.90;;;;;;2081026;28;20040;-71
2021/08/30 01:32:41;;;;;;;10.77;9.52;;;14.00;99.90;;;;;;2089024;28;20037;-71
2021/08/30 01:33:42;;;;;;;9.93;8.93;;;14.00;99.90;;;;;;2079574;28;20105;-72
2021/08/30 01:34:44;;;;;;;9.93;8.93;;;14.00;99.90;;;;;;2080270;28;20033;-71
2021/08/30 01:35:45;;;;;;;11.15;10.02;;;13.90;99.90;;;;;;2080331;28;20052;-70
2021/08/30 01:36:48;;;;;;;10.52;9.45;;;13.90;99.90;;;;;;2088695;28;20028;-71
2021/08/30 01:37:52;;;;;;;10.43;9.40;;;13.90;99.90;;;;;;2088975;28;20047;-71
2021/08/30 01:38:58;;;;;;;10.43;9.43;;;13.80;99.90;;;;;;2071855;28;20018;-71
2021/08/30 01:39:59;;;;;;;10.75;9.63;;;13.80;99.90;;;;;;2073483;28;20057;-71
2021/08/30 01:41:00;;;;;;;11.90;9.77;;;13.80;99.90;;;;;;2088967;28;20037;-71
2021/08/30 01:42:02;;;;;;;10.73;9.63;;;13.80;99.90;;;;;;2088880;28;20059;-71
2021/08/30 01:43:04;;;;;;;11.40;10.20;;;13.70;99.90;;;;;;2088929;28;20021;-71
2021/08/30 01:44:06;;;;;;;11.25;9.68;;;13.70;99.90;;;;;;2079558;28;20029;-71
2021/08/30 01:45:11;;;;;;;10.80;9.63;;;13.70;99.90;;;;;;2080217;28;20032;-71
2021/08/30 01:46:13;;;;;;;11.18;9.95;;;13.70;99.90;;;;;;2080216;28;20458;-71
2021/08/30 01:47:15;;;;;;;10.18;9.18;;;13.60;99.90;;;;;;2079450;28;20026;-72
2021/08/30 01:48:18;;;;;;;10.57;9.48;;;13.60;99.90;;;;;;2088876;28;20033;-72
2021/08/30 01:49:21;;;;;;;11.25;10.07;;;13.60;99.90;;;;;;2079689;28;20466;-73
2021/08/30 01:50:22;;;;;;;10.20;9.20;;;13.60;99.90;;;;;;2080141;28;20037;-72
2021/08/30 01:51:25;;;;;;;11.60;9.70;;;13.50;99.90;;;;;;2088554;28;20047;-72
2021/08/30 01:52:32;;;;;;;10.23;9.18;;;13.50;99.90;;;;;;2079900;28;20152;-72
2021/08/30 01:53:33;;;;;;;10.15;9.13;;;13.50;99.90;;;;;;2080314;28;20072;-73
2021/08/30 01:54:33;;;;;;;11.40;9.63;;;13.50;99.90;;;;;;2079949;28;20034;-74
2021/08/30 01:55:46;;;;;;;10.60;9.50;;;13.50;99.90;;;;;;2080052;28;20108;-74
2021/08/30 01:56:50;;;;;;;10.60;9.55;;;13.40;99.90;;;;;;2088849;28;20052;-74
2021/08/30 02:01:39;;;;;;;9.95;8.95;;;13.40;99.90;;;;;;2088524;28;20075;-73
2021/08/30 02:02:40;;;;;;;10.10;9.00;;;13.40;99.90;;;;;;2088605;28;20021;-73
2021/08/30 02:03:40;;;;;;;11.20;9.45;;;13.30;99.90;;;;;;2079324;28;20137;-74
2021/08/30 02:04:41;;;;;;;10.68;9.30;;;13.30;99.90;;;;;;2079977;28;20057;-72
2021/08/30 02:05:53;;;;;;;11.40;9.75;;;13.30;99.90;;;;;;2088706;28;20031;-74
2021/08/30 02:06:54;;;;;;;11.13;9.23;;;13.30;99.90;;;;;;2088823;28;20386;-74
2021/08/30 02:07:54;;;;;;;10.73;9.63;;;13.30;99.90;;;;;;2088790;28;20029;-74
2021/08/30 02:08:56;;;;;;;10.77;9.68;;;13.30;99.90;;;;;;2088486;28;20382;-74
2021/08/30 02:09:56;;;;;;;11.13;9.98;;;13.30;99.90;;;;;;2089009;28;20028;-75
2021/08/30 02:11:10;;;;;;;11.38;10.18;;;13.20;99.90;;;;;;2088599;28;20152;-74
2021/08/30 02:12:10;;;;;;;10.70;9.45;;;13.20;99.90;;;;;;2088911;28;20029;-75
2021/08/30 02:13:13;;;;;;;12.75;9.63;;;13.20;99.90;;;;;;2080165;28;20029;-74
2021/08/30 02:14:14;;;;;;;10.60;9.50;;;13.20;99.90;;;;;;2080078;28;20037;-74
2021/08/30 02:15:14;;;;;;;11.38;9.73;;;13.20;99.90;;;;;;2089154;28;20033;-74
2021/08/30 02:16:15;;;;;;;11.05;9.95;;;13.20;99.90;;;;;;2089071;28;20020;-72
2021/08/30 02:17:30;;;;;;;13.27;10.88;;;13.20;99.90;;;;;;2088933;28;20457;-74
2021/08/30 02:18:44;;;;;;;12.15;10.68;;;13.10;99.90;;;;;;2088793;28;20599;-73
2021/08/30 02:19:55;;;;;;;12.50;10.43;;;13.20;99.90;;;;;;2088692;28;20087;-73
2021/08/30 02:21:04;;;;;;;12.55;10.88;;;13.10;99.90;;;;;;2088739;28;20053;-73
2021/08/30 02:22:12;;;;;;;12.27;11.00;;;13.10;99.90;;;;;;2088634;28;20488;-74
2021/08/30 02:23:17;;;;;;;13.00;11.43;;;13.10;99.90;;;;;;2088636;28;20581;-74
2021/08/30 02:24:41;;;;;;;12.73;10.95;;;13.10;99.90;;;;;;2079096;28;20595;-74
2021/08/30 02:25:44;;;;;;;13.57;11.50;;;13.10;99.90;;;;;;2083097;28;20028;-74
2021/08/30 02:27:14;;;;;;;13.30;11.77;;;13.00;99.90;;;;;;2088887;28;20021;-74
2021/08/30 02:28:15;;;;;;;12.63;11.32;;;13.00;99.90;;;;;;2087904;28;20029;-74
2021/08/30 02:29:23;;;;;;;14.38;11.57;;;13.00;99.90;;;;;;2079084;28;20026;-72
2021/08/30 02:30:29;;;;;;;13.95;11.95;;;12.90;99.90;;;;;;2080236;28;20025;-74
2021/08/30 02:31:31;;;;;;;14.00;12.50;;;13.00;99.90;;;;;;2088330;28;20029;-73
2021/08/30 02:32:33;;;;;;;13.38;11.98;;;13.00;99.90;;;;;;2088544;28;20035;-72
2021/08/30 02:33:34;;;;;;;13.85;12.32;;;13.00;99.90;;;;;;2087434;28;20025;-74
2021/08/30 02:34:37;;;;;;;13.48;11.80;;;13.00;99.90;;;;;;2088093;28;20334;-74
2021/08/30 02:35:42;;;;;;;13.80;12.35;;;12.90;99.90;;;;;;2088582;28;20504;-71
2021/08/30 02:36:43;;;;;;;18.60;11.88;;;12.90;99.90;;;;;;2088289;28;20031;-74
2021/08/30 02:37:44;;;;;;;13.93;12.32;;;12.90;99.90;;;;;;2088664;28;20416;-74
2021/08/30 02:38:46;;;;;;;14.10;11.73;;;12.90;99.90;;;;;;2079477;28;20038;-73
2021/08/30 02:39:49;;;;;;;13.13;11.52;;;12.90;99.90;;;;;;2079873;28;20025;-74
2021/08/30 02:40:50;;;;;;;14.15;11.93;;;12.90;99.90;;;;;;2088554;28;20473;-74
2021/08/30 02:41:51;;;;;;;13.57;12.02;;;12.80;99.90;;;;;;2088363;28;20117;-74
2021/08/30 02:42:52;;;;;;;13.75;12.35;;;12.80;99.90;;;;;;2088844;28;20029;-74
2021/08/30 02:43:55;;;;;;;13.30;11.90;;;12.80;99.90;;;;;;2088314;28;20029;-74
2021/08/30 02:44:57;;;;;;;12.52;11.23;;;12.80;99.90;;;;;;2080326;28;20109;-74
2021/08/30 02:45:58;;;;;;;12.77;11.48;;;12.80;99.90;;;;;;2071879;28;20077;-74
2021/08/30 02:46:59;;;;;;;13.13;11.57;;;12.80;99.90;;;;;;2079946;28;20046;-73
2021/08/30 02:48:03;;;;;;;12.43;11.13;;;12.80;99.90;;;;;;2089274;28;20078;-73
2021/08/30 02:49:05;;;;;;;12.48;11.18;;;12.80;99.90;;;;;;2080286;28;20089;-73
2021/08/30 02:50:08;;;;;;;14.07;11.55;;;12.80;99.90;;;;;;2080624;28;20156;-73
2021/08/30 02:51:11;;;;;;;13.07;11.18;;;12.80;99.90;;;;;;2089374;28;20035;-74
2021/08/30 02:52:18;;;;;;;12.82;11.38;;;12.70;99.90;;;;;;2088716;28;20086;-72
2021/08/30 02:53:21;;;;;;;13.68;11.68;;;12.70;99.90;;;;;;2090140;28;20033;-72
2021/08/30 02:54:23;;;;;;;13.07;11.45;;;12.70;99.90;;;;;;2089743;28;20025;-73
2021/08/30 02:55:24;;;;;;;13.52;11.90;;;12.70;99.90;;;;;;2089170;28;20040;-73
2021/08/30 02:56:25;;;;;;;13.63;12.18;;;12.70;99.90;;;;;;2088549;28;20033;-73
2021/08/30 02:57:27;;;;;;;12.85;11.20;;;12.70;99.90;;;;;;2079899;28;20776;-74
2021/08/30 02:58:29;;;;;;;12.93;11.63;;;12.70;99.90;;;;;;2080610;28;20503;-74
2021/08/30 02:59:30;;;;;;;13.32;11.93;;;12.60;99.90;;;;;;2091037;28;20017;-74
2021/08/30 03:00:33;;;;;;;13.68;12.02;;;12.60;99.90;;;;;;2091375;28;20020;-72
2021/08/30 03:01:34;;;;;;;14.32;12.00;;;12.60;99.90;;;;;;2082138;28;20504;-74
2021/08/30 03:02:37;;;;;;;13.35;11.95;;;12.60;99.90;;;;;;2082029;28;20083;-74
2021/08/30 03:03:38;;;;;;;13.60;12.15;;;12.60;99.90;;;;;;2081503;28;20033;-74
2021/08/30 03:04:39;;;;;;;14.32;12.52;;;12.60;99.90;;;;;;2074338;28;20030;-74
2021/08/30 03:05:43;;;;;;;14.90;12.52;;;12.60;99.90;;;;;;2081999;28;20032;-74
2021/08/30 03:06:44;;;;;;;15.38;12.60;;;12.50;99.90;;;;;;2090271;28;20029;-73
2021/08/30 03:07:46;;;;;;;14.52;12.82;;;12.50;99.90;;;;;;2081723;28;20038;-72
2021/08/30 03:08:47;;;;;;;13.75;12.32;;;12.50;99.90;;;;;;2081140;28;20045;-74
2021/08/30 03:09:47;;;;;;;15.05;12.18;;;12.50;99.90;;;;;;2089980;28;20235;-74
2021/08/30 03:10:49;;;;;;;15.25;13.10;;;12.50;99.90;;;;;;2081333;28;20566;-70
2021/08/30 03:11:52;;;;;;;13.88;12.10;;;12.50;99.90;;;;;;2072846;28;20025;-70
2021/08/30 03:12:55;;;;;;;15.70;12.90;;;12.50;99.90;;;;;;2081221;28;20029;-70
2021/08/30 03:13:57;;;;;;;14.00;12.50;;;12.50;99.90;;;;;;2080999;28;20029;-70
2021/08/30 03:15:02;;;;;;;15.80;12.73;;;12.50;99.90;;;;;;2081203;28;20150;-70
2021/08/30 03:16:03;;;;;;;14.00;12.50;;;12.50;99.90;;;;;;2081486;28;20040;-71
2021/08/30 03:17:09;;;;;;;13.88;12.20;;;12.50;99.90;;;;;;2089778;28;20036;-70
2021/08/30 03:18:12;;;;;;;13.55;11.77;;;12.40;99.90;;;;;;2089931;28;20052;-70
2021/08/30 03:19:14;;;;;;;13.73;12.13;;;12.40;99.90;;;;;;2089557;28;20021;-70
2021/08/30 03:20:18;;;;;;;12.98;11.68;;;12.40;99.90;;;;;;2089916;28;20504;-70
2021/08/30 03:21:19;;;;;;;13.30;11.70;;;12.40;99.90;;;;;;2081089;28;20503;-70
2021/08/30 03:22:21;;;;;;;13.45;12.05;;;12.40;99.90;;;;;;2081293;28;20044;-70
2021/08/30 03:23:22;;;;;;;14.90;12.43;;;12.40;99.90;;;;;;2089529;28;20025;-75
2021/08/30 03:24:24;;;;;;;12.90;11.50;;;12.40;99.90;;;;;;2080803;28;20483;-71
2021/08/30 03:25:29;;;;;;;13.95;11.73;;;12.40;99.90;;;;;;2072760;28;20038;-70
2021/08/30 03:26:31;;;;;;;13.13;11.52;;;12.40;99.90;;;;;;2081539;28;20048;-69
2021/08/30 03:27:33;;;;;;;13.52;11.32;;;12.40;99.90;;;;;;2089844;28;20121;-72
2021/08/30 03:28:35;;;;;;;12.88;11.40;;;12.40;99.90;;;;;;2089695;28;20662;-74
2021/08/30 03:29:37;;;;;;;12.90;11.07;;;12.50;99.90;;;;;;2089966;28;20029;-72
2021/08/30 03:30:39;;;;;;;13.48;10.68;;;12.50;99.90;;;;;;2089648;28;20028;-69
2021/08/30 03:31:39;;;;;;;11.50;10.30;;;12.50;99.90;;;;;;2089908;28;20028;-72
2021/08/30 03:32:42;;;;;;;13.27;10.98;;;12.50;99.90;;;;;;2090033;28;20032;-70
2021/08/30 03:33:43;;;;;;;12.30;10.98;;;12.50;99.90;;;;;;2089615;28;20044;-71
2021/08/30 03:34:45;;;;;;;12.70;10.95;;;12.50;99.90;;;;;;2089800;28;20037;-70
2021/08/30 03:35:47;;;;;;;13.05;10.63;;;12.50;99.90;;;;;;2089896;28;20035;-72
2021/08/30 03:36:49;;;;;;;11.98;10.77;;;12.60;99.90;;;;;;2089796;28;20036;-72
2021/08/30 03:37:50;;;;;;;11.57;10.38;;;12.60;99.90;;;;;;2080817;28;20575;-72
2021/08/30 03:38:51;;;;;;;11.88;10.40;;;12.50;99.90;;;;;;2080659;28;20040;-72
2021/08/30 03:39:52;;;;;;;12.38;10.18;;;12.60;99.90;;;;;;2080896;28;20033;-73
2021/08/30 03:40:54;;;;;;;15.13;10.95;;;12.60;99.90;;;;;;2080732;28;20037;-73
2021/08/30 03:41:56;;;;;;;12.07;10.52;;;12.60;99.90;;;;;;2080637;28;20036;-73
2021/08/30 03:42:58;;;;;;;12.50;10.35;;;12.60;99.90;;;;;;2080789;28;20026;-73
2021/08/30 03:44:00;;;;;;;12.13;10.70;;;12.60;99.90;;;;;;2080176;28;20029;-71
2021/08/30 03:45:00;;;;;;;12.50;10.65;;;12.60;99.90;;;;;;2089620;28;20029;-73
2021/08/30 03:46:02;;;;;;;11.48;9.57;;;12.60;99.90;;;;;;2089561;28;20044;-73
2021/08/30 03:47:05;;;;;;;12.55;9.95;;;12.50;99.90;;;;;;2089534;28;20021;-73
2021/08/30 03:48:06;;;;;;;10.85;9.68;;;12.50;99.90;;;;;;2089800;28;20420;-73
2021/08/30 03:49:08;;;;;;;11.32;10.13;;;12.60;99.90;;;;;;2089405;28;20149;-73
2021/08/30 03:50:11;;;;;;;12.65;9.95;;;12.50;99.90;;;;;;2089725;28;20401;-72
2021/08/30 03:51:14;;;;;;;10.90;9.80;;;12.50;99.90;;;;;;2089405;28;20082;-70
2021/08/30 03:52:15;;;;;;;13.27;9.77;;;12.50;99.90;;;;;;2089648;28;20055;-70
2021/08/30 03:53:19;;;;;;;12.90;10.63;;;12.50;99.90;;;;;;2089628;28;20050;-69
2021/08/30 03:54:21;;;;;;;10.70;9.60;;;12.60;99.90;;;;;;2089343;28;20056;-70
2021/08/30 03:55:21;;;;;;;10.55;9.45;;;12.50;99.90;;;;;;2089552;28;20032;-70
2021/08/30 03:56:25;;;;;;;12.02;9.73;;;12.50;99.90;;;;;;2089558;28;20073;-69
2021/08/30 03:57:26;;;;;;;11.60;10.40;;;12.50;99.90;;;;;;2089512;28;20025;-72
2021/08/30 03:58:28;;;;;;;10.35;9.23;;;12.50;99.90;;;;;;2089719;28;20082;-69
2021/08/30 03:59:33;;;;;;;11.68;9.45;;;12.50;99.90;;;;;;2089065;28;20025;-69
2021/08/30 04:00:34;;;;;;;11.25;10.05;;;12.50;99.90;;;;;;2089598;28;20036;-70
2021/08/30 04:01:40;;;;;;;11.07;9.88;;;12.50;99.90;;;;;;2089522;28;20087;-71
2021/08/30 04:02:41;;;;;;;11.40;10.10;;;12.50;99.90;;;;;;2089525;28;20037;-70
2021/08/30 04:03:46;;;;;;;11.18;9.73;;;12.50;99.90;;;;;;2089182;28;20477;-69
2021/08/30 04:04:48;;;;;;;11.05;9.85;;;12.50;99.90;;;;;;2089644;28;20112;-70
2021/08/30 04:05:51;;;;;;;11.18;9.70;;;12.50;99.90;;;;;;2089633;28;20021;-70
2021/08/30 04:06:54;;;;;;;11.13;9.82;;;12.50;99.90;;;;;;2089672;28;20377;-69
2021/08/30 04:07:58;;;;;;;11.68;10.10;;;12.50;99.90;;;;;;2089445;28;20033;-72
2021/08/30 04:08:59;;;;;;;12.68;10.95;;;12.60;99.90;;;;;;2089059;28;20063;-71
2021/08/30 04:10:00;;;;;;;13.75;11.13;;;12.60;99.90;;;;;;2079955;28;20037;-71
2021/08/30 04:11:01;;;;;;;14.15;11.95;;;12.60;99.90;;;;;;2080547;28;20128;-72
2021/08/30 04:12:04;;;;;;;15.43;11.85;;;12.60;99.90;;;;;;2089428;28;20401;-71
2021/08/30 04:13:05;;;;;;;16.95;13.98;;;12.60;99.90;;;;;;2089549;28;20029;-71
2021/08/30 04:14:05;;;;;;;19.33;14.98;;;12.70;99.90;;;;;;2089082;28;20469;-72
2021/08/30 04:15:06;;;;;;;19.25;15.45;;;12.70;99.90;;;;;;2089521;28;20040;-71
2021/08/30 04:16:07;;;;;;;19.85;15.00;;;12.80;99.90;;;;;;2089331;28;20830;-71
2021/08/30 04:17:08;;;;;;;18.45;14.85;;;12.70;99.90;;;;;;2089373;28;20039;-71
2021/08/30 04:18:09;;;;;;;16.88;14.05;;;12.80;99.90;;;;;;2089406;28;20071;-71
2021/08/30 04:19:09;;;;;;;19.02;14.45;;;12.80;99.90;;;;;;2089200;28;20017;-71
2021/08/30 04:20:10;;;;;;;18.35;14.38;;;12.80;99.90;;;;;;2089474;28;20029;-71
2021/08/30 04:21:11;;;;;;;22.80;16.83;;;12.80;99.90;;;;;;2089409;28;20112;-72
2021/08/30 04:22:12;;;;;;;20.70;15.30;;;12.80;99.90;;;;;;2089876;28;20029;-71
2021/08/30 04:23:13;;;;;;;22.25;16.77;;;12.80;99.90;;;;;;2089290;28;20112;-71
2021/08/30 04:24:14;;;;;;;20.52;15.68;;;12.80;99.90;;;;;;2088838;28;20472;-70
2021/08/30 04:25:15;;;;;;;22.80;16.67;;;12.90;99.90;;;;;;2089283;28;20746;-71
2021/08/30 04:26:15;;;;;;;21.08;16.65;;;12.90;99.90;;;;;;2089445;28;20029;-72
2021/08/30 04:27:16;;;;;;;20.42;15.85;;;12.90;99.90;;;;;;2080376;28;20029;-71
2021/08/30 04:28:16;;;;;;;19.83;15.57;;;12.90;99.90;;;;;;2080434;28;20436;-71
2021/08/30 04:29:17;;;;;;;19.15;15.10;;;12.90;99.90;;;;;;2089151;28;20028;-71
2021/08/30 04:30:18;;;;;;;24.63;17.15;;;12.90;99.90;;;;;;2089493;28;20377;-72
2021/08/30 04:31:19;;;;;;;19.23;15.02;;;12.90;99.90;;;;;;2089343;28;20024;-72
2021/08/30 04:32:19;;;;;;;20.90;15.55;;;12.90;99.90;;;;;;2089382;28;20048;-71
2021/08/30 04:33:22;;;;;;;19.73;15.25;;;12.90;99.90;;;;;;2080540;28;20026;-71
2021/08/30 04:34:24;;;;;;;20.10;15.48;;;13.00;99.90;;;;;;2080905;28;20025;-71
2021/08/30 04:35:24;;;;;;;19.45;14.48;;;12.90;99.90;;;;;;2080573;28;20026;-72
2021/08/30 04:36:25;;;;;;;17.95;14.75;;;12.90;99.90;;;;;;2080280;28;20071;-71
2021/08/30 04:37:26;;;;;;;18.77;14.60;;;12.90;99.90;;;;;;2089258;28;20044;-72
2021/08/30 04:38:27;;;;;;;17.15;13.25;;;12.90;99.90;;;;;;2080283;28;20077;-71
2021/08/30 04:39:27;;;;;;;16.77;13.63;;;12.90;99.90;;;;;;2080264;28;20036;-71
2021/08/30 04:40:28;;;;;;;18.83;14.25;;;12.90;99.90;;;;;;2080287;28;20025;-71
2021/08/30 04:41:29;;;;;;;20.00;15.20;;;12.90;99.90;;;;;;2080306;28;20037;-71
2021/08/30 04:42:30;;;;;;;20.75;15.10;;;12.90;99.90;;;;;;2089132;28;20057;-71
2021/08/30 04:43:31;;;;;;;17.05;13.73;;;12.90;99.90;;;;;;2088613;28;20028;-71
2021/08/30 04:44:32;;;;;;;25.42;19.95;;;12.90;99.90;;;;;;2089186;28;20035;-71
2021/08/30 04:45:33;;;;;;;27.73;21.35;;;12.90;99.90;;;;;;2089243;28;20485;-71
2021/08/30 04:46:34;;;;;;;25.63;19.33;;;13.00;99.90;;;;;;2089398;28;20104;-71
2021/08/30 04:47:35;;;;;;;22.42;17.80;;;13.00;99.90;;;;;;2089548;28;20114;-71
2021/08/30 04:48:36;;;;;;;21.45;16.45;;;12.90;99.90;;;;;;2089293;28;20431;-71
2021/08/30 04:49:38;;;;;;;26.58;17.30;;;13.00;99.90;;;;;;2089268;28;20037;-70
2021/08/30 04:50:38;;;;;;;21.63;16.55;;;13.00;99.90;;;;;;2080681;28;20033;-70
2021/08/30 04:51:39;;;;;;;21.70;16.25;;;13.00;99.90;;;;;;2080564;28;20049;-70
2021/08/30 04:52:40;;;;;;;21.20;15.93;;;13.00;99.90;;;;;;2089330;28;20033;-70
2021/08/30 04:53:40;;;;;;;21.92;16.10;;;13.00;99.90;;;;;;2088694;28;20037;-71
2021/08/30 04:54:41;;;;;;;21.60;16.27;;;13.00;99.90;;;;;;2089213;28;20084;-71
2021/08/30 04:55:41;;;;;;;22.85;16.27;;;13.00;99.90;;;;;;2080308;28;20141;-71
2021/08/30 04:56:42;;;;;;;19.90;15.40;;;13.00;99.90;;;;;;2080259;28;20179;-72
2021/08/30 04:57:43;;;;;;;20.33;15.07;;;13.00;99.90;;;;;;2089102;28;20036;-72
2021/08/30 04:58:43;;;;;;;21.95;16.70;;;13.00;99.90;;;;;;2088761;28;20064;-72
2021/08/30 04:59:44;;;;;;;23.77;16.38;;;13.00;99.90;;;;;;2089299;28;20043;-72
2021/08/30 05:00:44;;;;;;;21.58;16.08;;;13.00;99.90;;;;;;2080388;28;20029;-72
2021/08/30 05:01:45;;;;;;;22.35;16.02;;;13.00;99.90;;;;;;2072167;28;20089;-72
2021/08/30 05:02:45;;;;;;;19.40;15.27;;;13.00;99.90;;;;;;2080245;28;20025;-73
2021/08/30 05:03:46;;;;;;;21.10;15.60;;;13.00;99.90;;;;;;2079627;28;20109;-74
2021/08/30 05:04:47;;;;;;;19.48;14.68;;;13.00;99.90;;;;;;2080392;28;20022;-71
2021/08/30 05:05:47;;;;;;;20.02;15.13;;;13.00;99.90;;;;;;2089067;28;20527;-72
2021/08/30 05:06:48;;;;;;;22.38;15.73;;;13.00;99.90;;;;;;2089159;28;20025;-72
2021/08/30 05:07:48;;;;;;;22.25;16.27;;;13.10;99.90;;;;;;2080199;28;20669;-72
2021/08/30 05:08:49;;;;;;;21.10;15.68;;;13.10;99.90;;;;;;2079834;28;20030;-71
2021/08/30 05:09:50;;;;;;;23.15;15.90;;;13.10;99.90;;;;;;2089072;28;20033;-71
2021/08/30 05:10:50;;;;;;;18.90;14.60;;;13.10;99.90;;;;;;2089056;28;20037;-71
2021/08/30 05:11:51;;;;;;;21.50;15.15;;;13.00;99.90;;;;;;2088692;28;20028;-71
2021/08/30 05:12:51;;;;;;;19.20;13.65;;;13.10;99.90;;;;;;2089006;28;20037;-71
2021/08/30 05:13:52;;;;;;;18.33;13.60;;;13.10;99.90;;;;;;2088468;28;20396;-71
2021/08/30 05:14:56;;;;;;;19.30;14.55;;;13.10;99.90;;;;;;2089069;28;20029;-71
2021/08/30 05:15:56;;;;;;;21.30;16.02;;;13.10;99.90;;;;;;2089036;28;20029;-71
2021/08/30 05:16:57;;;;;;;21.48;15.68;;;13.10;99.90;;;;;;2089003;28;20562;-72
2021/08/30 05:17:57;;;;;;;22.90;16.65;;;13.20;99.90;;;;;;2089025;28;20449;-71
2021/08/30 05:18:58;;;;;;;21.23;15.98;;;13.20;99.90;;;;;;2088668;28;20336;-71
2021/08/30 05:19:59;;;;;;;22.17;16.23;;;13.20;99.90;;;;;;2089012;28;20120;-71
2021/08/30 05:20:59;;;;;;;21.17;17.08;;;13.20;99.90;;;;;;2079991;28;20025;-72
2021/08/30 05:22:00;;;;;;;21.48;17.10;;;13.10;99.90;;;;;;2079190;28;20722;-72
2021/08/30 05:23:00;;;;;;;23.10;17.83;;;13.10;99.90;;;;;;2088908;28;20111;-71
2021/08/30 05:24:01;;;;;;;22.65;17.17;;;13.10;99.90;;;;;;2088518;28;20035;-72